createdAt,value
2023-04-11T00:00:55.952Z,24.04
2023-04-11T00:01:55.992Z,25.57
2023-04-11T00:02:56.024Z,20.56
2023-04-11T00:03:56.044Z,17.49
2023-04-11T00:04:55.942Z,14.73
2023-04-11T00:05:55.893Z,13.50
2023-04-11T00:06:55.856Z,10.94
2023-04-11T00:07:55.842Z,12.27
2023-04-11T00:08:56.022Z,16.16
2023-04-11T00:09:55.821Z,16.56
2023-04-11T00:10:55.809Z,14.83
2023-04-11T00:11:55.803Z,13.81
2023-04-11T00:12:55.785Z,13.40
2023-04-11T00:13:55.777Z,12.78
2023-04-11T00:14:55.760Z,14.62
2023-04-11T00:15:56.002Z,13.40
2023-04-11T00:16:55.758Z,14.93
2023-04-11T00:17:55.770Z,14.42
2023-04-11T00:18:55.942Z,16.56
2023-04-11T00:19:55.712Z,13.60
2023-04-11T00:20:55.705Z,15.85
2023-04-11T00:21:55.692Z,17.59
2023-04-11T00:22:55.675Z,18.93
2023-04-11T00:23:55.816Z,18.11
2023-04-11T00:24:55.656Z,16.88
2023-04-11T00:25:55.792Z,17.49
2023-04-11T00:26:55.636Z,16.77
2023-04-11T00:27:55.629Z,16.58
2023-04-11T00:28:55.833Z,16.16
2023-04-11T00:29:55.607Z,18.93
2023-04-11T00:30:55.583Z,21.08
2023-04-11T00:31:55.632Z,21.08
2023-04-11T00:32:55.571Z,21.48
2023-04-11T00:33:55.554Z,20.15
2023-04-11T00:34:55.541Z,22.20
2023-04-11T00:35:55.595Z,21.80
2023-04-11T00:36:55.596Z,23.02
2023-04-11T00:37:55.509Z,20.77
2023-04-11T00:38:55.810Z,18.52
2023-04-11T00:39:55.485Z,17.70
2023-04-11T00:40:55.472Z,19.44
2023-04-11T00:41:55.462Z,20.87
2023-04-11T00:42:55.460Z,22.20
2023-04-11T00:43:55.442Z,21.08
2023-04-11T00:44:55.426Z,20.15
2023-04-11T00:45:55.428Z,21.18
2023-04-11T00:46:55.404Z,20.56
2023-04-11T00:47:55.502Z,18.93
2023-04-11T00:48:55.659Z,19.03
2023-04-11T00:49:55.373Z,17.90
2023-04-11T00:50:55.367Z,16.78
2023-04-11T00:51:55.352Z,15.75
2023-04-11T00:52:55.404Z,15.55
2023-04-11T00:53:55.329Z,17.80
2023-04-11T00:54:55.318Z,18.43
2023-04-11T00:55:55.355Z,17.91
2023-04-11T00:56:55.295Z,17.10
2023-04-11T00:57:55.333Z,17.40
2023-04-11T00:58:55.484Z,16.27
2023-04-11T00:59:55.260Z,17.10
2023-04-11T01:00:55.282Z,19.35
2023-04-11T01:01:55.400Z,17.91
2023-04-11T01:02:55.500Z,19.45
2023-04-11T01:03:55.362Z,19.76
2023-04-11T01:04:55.204Z,19.76
2023-04-11T01:05:55.199Z,20.06
2023-04-11T01:06:55.182Z,20.48
2023-04-11T01:07:55.374Z,19.25
2023-04-11T01:08:55.572Z,19.46
2023-04-11T01:09:55.160Z,17.41
2023-04-11T01:10:55.144Z,18.23
2023-04-11T01:11:55.136Z,16.49
2023-04-11T01:12:55.117Z,16.28
2023-04-11T01:13:55.110Z,16.89
2023-04-11T01:14:55.102Z,16.18
2023-04-11T01:15:55.092Z,14.13
2023-04-11T01:16:55.102Z,14.44
2023-04-11T01:17:55.089Z,11.57
2023-04-11T01:18:55.267Z,11.36
2023-04-11T01:19:55.078Z,9.93
2023-04-11T01:20:55.034Z,9.22
2023-04-11T01:21:55.020Z,13.52
2023-04-11T01:22:55.013Z,18.84
2023-04-11T01:23:55.000Z,21.29
2023-04-11T01:24:54.985Z,21.91
2023-04-11T01:25:54.976Z,24.77
2023-04-11T01:26:54.965Z,24.16
2023-04-11T01:27:54.965Z,28.56
2023-04-11T01:28:55.358Z,30.94
2023-04-11T01:29:54.937Z,27.80
2023-04-11T01:30:54.977Z,16.42
2023-04-11T01:31:54.918Z,12.01
2023-04-11T01:32:54.943Z,7.18
2023-04-11T01:33:54.898Z,4.31
2023-04-11T01:34:54.902Z,0.51
2023-04-11T01:35:54.930Z,0.00
2023-04-11T01:36:54.888Z,1.03
2023-04-11T01:37:54.849Z,0.00
2023-04-11T01:38:55.173Z,0.00
2023-04-11T01:39:54.822Z,0.00
2023-04-11T01:40:54.807Z,0.00
2023-04-11T01:41:54.798Z,0.00
2023-04-11T01:42:54.797Z,0.00
2023-04-11T01:43:54.775Z,0.00
2023-04-11T01:44:54.760Z,0.00
2023-04-11T01:45:54.759Z,0.00
2023-04-11T01:46:54.774Z,0.00
2023-04-11T01:47:54.952Z,0.00
2023-04-11T01:48:55.056Z,0.00
2023-04-11T01:49:54.727Z,0.00
2023-04-11T01:50:54.712Z,0.00
2023-04-11T01:51:54.708Z,0.00
2023-04-11T01:52:54.674Z,0.00
2023-04-11T01:53:54.660Z,0.00
2023-04-11T01:54:54.653Z,0.00
2023-04-11T01:55:54.641Z,0.00
2023-04-11T01:56:54.629Z,0.00
2023-04-11T01:57:54.656Z,0.00
2023-04-11T01:58:54.871Z,0.00
2023-04-11T01:59:54.623Z,0.00
2023-04-11T02:00:54.597Z,0.00
2023-04-11T02:01:54.598Z,0.00
2023-04-11T02:02:54.680Z,0.00
2023-04-11T02:03:54.669Z,0.00
2023-04-11T02:04:54.542Z,0.00
2023-04-11T02:05:54.532Z,0.00
2023-04-11T02:06:54.521Z,0.00
2023-04-11T02:07:54.544Z,0.00
2023-04-11T02:08:54.725Z,0.00
2023-04-11T02:09:54.492Z,0.00
2023-04-11T02:10:54.476Z,0.00
2023-04-11T02:11:54.467Z,0.00
2023-04-11T02:12:54.456Z,0.00
2023-04-11T02:13:54.442Z,0.00
2023-04-11T02:14:54.431Z,0.00
2023-04-11T02:15:54.549Z,0.00
2023-04-11T02:16:54.411Z,0.00
2023-04-11T02:17:54.444Z,0.00
2023-04-11T02:18:54.753Z,0.00
2023-04-11T02:19:54.378Z,0.00
2023-04-11T02:20:54.367Z,0.00
2023-04-11T02:21:54.365Z,0.00
2023-04-11T02:22:54.345Z,0.00
2023-04-11T02:23:54.368Z,0.00
2023-04-11T02:24:54.329Z,0.00
2023-04-11T02:25:54.317Z,0.00
2023-04-11T02:26:54.310Z,0.00
2023-04-11T02:27:54.295Z,0.00
2023-04-11T02:28:54.513Z,0.00
2023-04-11T02:29:54.278Z,0.00
2023-04-11T02:30:54.307Z,0.00
2023-04-11T02:31:54.309Z,0.00
2023-04-11T02:32:54.355Z,0.00
2023-04-11T02:33:54.231Z,0.00
2023-04-11T02:34:54.222Z,0.00
2023-04-11T02:35:54.215Z,0.00
2023-04-11T02:36:54.195Z,0.00
2023-04-11T02:37:54.186Z,0.00
2023-04-11T02:38:54.481Z,0.00
2023-04-11T02:39:54.182Z,0.00
2023-04-11T02:40:54.155Z,0.00
2023-04-11T02:41:54.136Z,0.00
2023-04-11T02:42:54.132Z,0.00
2023-04-11T02:43:54.115Z,0.00
2023-04-11T02:44:54.105Z,0.00
2023-04-11T02:45:59.233Z,0.00
2023-04-11T02:46:54.179Z,0.00
2023-04-11T02:47:54.127Z,0.00
2023-04-11T02:48:54.280Z,0.00
2023-04-11T02:49:54.051Z,0.00
2023-04-11T02:50:54.044Z,0.00
2023-04-11T02:51:54.031Z,0.00
2023-04-11T02:52:54.021Z,0.00
2023-04-11T02:53:54.014Z,0.00
2023-04-11T02:54:54.000Z,0.00
2023-04-11T02:55:54.007Z,0.00
2023-04-11T02:56:53.975Z,0.00
2023-04-11T02:57:53.962Z,0.00
2023-04-11T02:58:54.318Z,0.00
2023-04-11T02:59:53.941Z,0.00
2023-04-11T03:00:53.930Z,0.00
2023-04-11T03:01:53.985Z,0.00
2023-04-11T03:02:54.014Z,0.00
2023-04-11T03:03:54.015Z,0.00
2023-04-11T03:04:53.894Z,0.00
2023-04-11T03:05:53.879Z,0.00
2023-04-11T03:06:53.872Z,0.00
2023-04-11T03:07:53.870Z,0.00
2023-04-11T03:08:54.124Z,0.00
2023-04-11T03:09:53.828Z,0.00
2023-04-11T03:10:53.846Z,0.00
2023-04-11T03:11:53.831Z,0.00
2023-04-11T03:12:53.803Z,0.00
2023-04-11T03:13:53.786Z,0.00
2023-04-11T03:14:53.802Z,0.00
2023-04-11T03:15:53.799Z,0.00
2023-04-11T03:16:53.764Z,0.00
2023-04-11T03:17:53.774Z,0.00
2023-04-11T03:18:54.122Z,0.00
2023-04-11T03:19:53.728Z,0.00
2023-04-11T03:20:53.727Z,0.00
2023-04-11T03:21:53.700Z,0.00
2023-04-11T03:22:53.698Z,0.00
2023-04-11T03:23:53.678Z,0.00
2023-04-11T03:24:53.671Z,0.00
2023-04-11T03:25:53.665Z,0.00
2023-04-11T03:26:53.652Z,0.00
2023-04-11T03:27:53.661Z,0.00
2023-04-11T03:28:54.045Z,0.00
2023-04-11T03:29:53.638Z,0.00
2023-04-11T03:30:53.605Z,0.00
2023-04-11T03:31:53.605Z,0.00
2023-04-11T03:32:53.614Z,0.00
2023-04-11T03:33:53.573Z,0.00
2023-04-11T03:34:53.572Z,0.00
2023-04-11T03:35:53.577Z,0.00
2023-04-11T03:36:53.548Z,0.00
2023-04-11T03:37:53.527Z,0.00
2023-04-11T03:38:53.729Z,0.00
2023-04-11T03:39:53.506Z,0.00
2023-04-11T03:40:53.514Z,0.00
2023-04-11T03:41:53.508Z,0.00
2023-04-11T03:42:53.473Z,0.00
2023-04-11T03:43:53.486Z,0.00
2023-04-11T03:44:53.458Z,0.00
2023-04-11T03:45:53.506Z,0.00
2023-04-11T03:46:53.475Z,0.00
2023-04-11T03:47:53.466Z,0.00
2023-04-11T03:48:53.505Z,0.00
2023-04-11T03:49:53.398Z,0.00
2023-04-11T03:50:53.390Z,0.00
2023-04-11T03:51:53.374Z,0.00
2023-04-11T03:52:53.367Z,0.00
2023-04-11T03:53:53.364Z,0.00
2023-04-11T03:54:53.374Z,0.00
2023-04-11T03:55:53.328Z,0.00
2023-04-11T03:56:53.320Z,0.00
2023-04-11T03:57:53.308Z,0.00
2023-04-11T03:58:53.649Z,0.00
2023-04-11T03:59:53.308Z,0.00
2023-04-11T04:00:53.276Z,0.00
2023-04-11T04:01:53.392Z,0.00
2023-04-11T04:02:53.438Z,0.00
2023-04-11T04:03:53.619Z,0.00
2023-04-11T04:04:53.279Z,0.00
2023-04-11T04:05:53.229Z,0.00
2023-04-11T04:06:53.210Z,0.00
2023-04-11T04:07:55.675Z,0.00
2023-04-11T04:08:53.198Z,0.00
2023-04-11T04:09:53.180Z,0.00
2023-04-11T04:10:53.169Z,0.00
2023-04-11T04:11:53.161Z,0.00
2023-04-11T04:12:53.147Z,0.00
2023-04-11T04:13:53.263Z,0.00
2023-04-11T04:14:53.120Z,0.00
2023-04-11T04:15:53.143Z,0.00
2023-04-11T04:16:53.216Z,0.00
2023-04-11T04:17:53.121Z,0.00
2023-04-11T04:18:53.078Z,0.00
2023-04-11T04:19:53.068Z,0.00
2023-04-11T04:20:53.064Z,0.00
2023-04-11T04:21:53.056Z,0.00
2023-04-11T04:22:53.076Z,0.00
2023-04-11T04:23:53.044Z,0.00
2023-04-11T04:24:53.007Z,0.00
2023-04-11T04:25:52.995Z,0.00
2023-04-11T04:26:52.989Z,0.00
2023-04-11T04:27:53.008Z,0.00
2023-04-11T04:28:52.965Z,0.00
2023-04-11T04:29:52.976Z,0.00
2023-04-11T04:30:52.953Z,0.00
2023-04-11T04:31:53.208Z,0.00
2023-04-11T04:32:52.952Z,0.00
2023-04-11T04:33:52.934Z,0.00
2023-04-11T04:34:52.902Z,0.00
2023-04-11T04:35:52.927Z,0.00
2023-04-11T04:36:52.878Z,0.00
2023-04-11T04:37:52.864Z,0.00
2023-04-11T04:38:52.863Z,0.00
2023-04-11T04:39:52.847Z,0.00
2023-04-11T04:40:52.838Z,0.00
2023-04-11T04:41:52.821Z,0.00
2023-04-11T04:42:52.812Z,0.00
2023-04-11T04:43:52.807Z,0.00
2023-04-11T04:44:52.808Z,0.00
2023-04-11T04:45:52.815Z,0.00
2023-04-11T04:46:52.766Z,0.00
2023-04-11T04:47:52.877Z,0.00
2023-04-11T04:48:52.766Z,0.00
2023-04-11T04:49:52.747Z,0.00
2023-04-11T04:50:52.730Z,0.00
2023-04-11T04:51:52.710Z,0.00
2023-04-11T04:52:52.718Z,0.00
2023-04-11T04:53:52.707Z,0.00
2023-04-11T04:54:52.682Z,0.00
2023-04-11T04:55:52.684Z,0.00
2023-04-11T04:56:52.710Z,0.00
2023-04-11T04:57:52.646Z,0.00
2023-04-11T04:58:52.637Z,0.00
2023-04-11T04:59:52.622Z,0.00
2023-04-11T05:00:52.631Z,0.00
2023-04-11T05:01:52.787Z,0.00
2023-04-11T05:02:52.743Z,0.00
2023-04-11T05:03:52.639Z,0.00
2023-04-11T05:04:52.571Z,0.00
2023-04-11T05:05:52.594Z,0.00
2023-04-11T05:06:52.547Z,0.00
2023-04-11T05:07:52.534Z,0.00
2023-04-11T05:08:52.542Z,0.00
2023-04-11T05:09:52.523Z,0.00
2023-04-11T05:10:52.502Z,0.00
2023-04-11T05:11:52.492Z,0.00
2023-04-11T05:12:52.482Z,0.00
2023-04-11T05:13:52.472Z,0.00
2023-04-11T05:14:52.466Z,0.00
2023-04-11T05:15:52.445Z,0.00
2023-04-11T05:16:52.490Z,0.00
2023-04-11T05:17:52.445Z,0.00
2023-04-11T05:18:52.416Z,0.00
2023-04-11T05:19:52.442Z,0.00
2023-04-11T05:20:52.393Z,0.00
2023-04-11T05:21:52.400Z,0.00
2023-04-11T05:22:52.374Z,0.00
2023-04-11T05:23:52.370Z,0.00
2023-04-11T05:24:52.350Z,0.00
2023-04-11T05:25:52.336Z,0.00
2023-04-11T05:26:52.331Z,0.00
2023-04-11T05:27:52.332Z,0.00
2023-04-11T05:28:52.305Z,0.00
2023-04-11T05:29:52.295Z,0.00
2023-04-11T05:30:52.324Z,0.00
2023-04-11T05:31:52.352Z,0.00
2023-04-11T05:32:52.409Z,0.00
2023-04-11T05:33:52.323Z,0.00
2023-04-11T05:34:52.355Z,0.00
2023-04-11T05:35:52.444Z,0.00
2023-04-11T05:36:52.391Z,0.00
2023-04-11T05:37:52.350Z,0.00
2023-04-11T05:38:52.237Z,0.00
2023-04-11T05:39:52.185Z,0.00
2023-04-11T05:40:52.189Z,0.00
2023-04-11T05:41:52.164Z,0.00
2023-04-11T05:42:52.153Z,0.00
2023-04-11T05:43:52.140Z,0.00
2023-04-11T05:44:52.167Z,0.00
2023-04-11T05:45:52.149Z,0.00
2023-04-11T05:46:52.110Z,0.00
2023-04-11T05:47:52.145Z,0.00
2023-04-11T05:48:52.091Z,0.00
2023-04-11T05:49:52.074Z,0.00
2023-04-11T05:50:52.090Z,0.00
2023-04-11T05:51:52.086Z,0.00
2023-04-11T05:52:52.060Z,0.00
2023-04-11T05:53:52.046Z,0.00
2023-04-11T05:54:52.037Z,0.00
2023-04-11T05:55:52.039Z,0.00
2023-04-11T05:56:51.998Z,0.00
2023-04-11T05:57:51.999Z,0.00
2023-04-11T05:58:51.988Z,0.00
2023-04-11T05:59:52.337Z,0.00
2023-04-11T06:00:51.956Z,0.00
2023-04-11T06:01:51.975Z,0.00
2023-04-11T06:02:52.100Z,0.00
2023-04-11T06:03:52.106Z,0.00
2023-04-11T06:04:51.981Z,0.00
2023-04-11T06:05:51.899Z,0.00
2023-04-11T06:06:51.891Z,0.00
2023-04-11T06:07:51.907Z,0.00
2023-04-11T06:08:51.867Z,0.00
2023-04-11T06:09:51.868Z,0.00
2023-04-11T06:10:51.870Z,0.00
2023-04-11T06:11:51.832Z,0.00
2023-04-11T06:12:51.834Z,0.00
2023-04-11T06:13:51.810Z,0.00
2023-04-11T06:14:51.802Z,0.00
2023-04-11T06:15:51.839Z,0.00
2023-04-11T06:16:51.775Z,0.00
2023-04-11T06:17:51.842Z,0.00
2023-04-11T06:18:51.761Z,0.00
2023-04-11T06:19:51.742Z,0.00
2023-04-11T06:20:51.734Z,0.00
2023-04-11T06:21:51.722Z,0.00
2023-04-11T06:22:51.758Z,0.00
2023-04-11T06:23:51.723Z,0.00
2023-04-11T06:24:51.692Z,0.00
2023-04-11T06:25:51.689Z,0.00
2023-04-11T06:26:51.666Z,0.00
2023-04-11T06:27:51.694Z,0.00
2023-04-11T06:28:51.647Z,0.00
2023-04-11T06:29:51.634Z,0.00
2023-04-11T06:30:51.697Z,0.00
2023-04-11T06:31:51.613Z,0.00
2023-04-11T06:32:51.706Z,0.00
2023-04-11T06:33:51.594Z,0.00
2023-04-11T06:34:51.581Z,0.00
2023-04-11T06:35:51.586Z,0.00
2023-04-11T06:36:51.560Z,0.00
2023-04-11T06:37:51.551Z,0.00
2023-04-11T06:38:51.539Z,0.00
2023-04-11T06:39:52.067Z,0.00
2023-04-11T06:40:51.603Z,0.00
2023-04-11T06:41:51.512Z,0.00
2023-04-11T06:42:51.495Z,0.00
2023-04-11T06:43:51.491Z,0.00
2023-04-11T06:44:51.479Z,0.00
2023-04-11T06:45:51.475Z,0.00
2023-04-11T06:46:51.485Z,0.00
2023-04-11T06:47:51.477Z,0.00
2023-04-11T06:48:51.434Z,0.00
2023-04-11T06:49:51.419Z,0.00
2023-04-11T06:50:51.405Z,0.00
2023-04-11T06:51:51.397Z,0.00
2023-04-11T06:52:51.383Z,0.00
2023-04-11T06:53:51.387Z,0.00
2023-04-11T06:54:51.362Z,0.00
2023-04-11T06:55:51.411Z,0.00
2023-04-11T06:56:51.338Z,0.00
2023-04-11T06:57:51.348Z,0.00
2023-04-11T06:58:51.316Z,0.00
2023-04-11T06:59:51.306Z,0.00
2023-04-11T07:00:51.297Z,0.00
2023-04-11T07:01:51.408Z,0.00
2023-04-11T07:02:51.506Z,0.00
2023-04-11T07:03:51.419Z,0.00
2023-04-11T07:04:51.273Z,0.00
2023-04-11T07:05:51.243Z,0.00
2023-04-11T07:06:51.232Z,0.00
2023-04-11T07:07:51.218Z,0.00
2023-04-11T07:08:51.205Z,0.00
2023-04-11T07:09:51.202Z,1.02
2023-04-11T07:10:51.185Z,3.17
2023-04-11T07:11:51.194Z,6.05
2023-04-11T07:12:51.159Z,0.00
2023-04-11T07:13:51.174Z,0.10
2023-04-11T07:14:51.143Z,25.09
2023-04-11T07:15:51.153Z,22.63
2023-04-11T07:16:51.117Z,23.76
2023-04-11T07:17:52.705Z,23.13
2023-04-11T07:18:51.098Z,26.20
2023-04-11T07:19:51.086Z,34.91
2023-04-11T07:20:51.075Z,36.66
2023-04-11T07:21:51.067Z,33.30
2023-04-11T07:22:51.054Z,31.76
2023-04-11T07:23:51.049Z,29.01
2023-04-11T07:24:51.033Z,25.10
2023-04-11T07:25:51.025Z,28.50
2023-04-11T07:26:51.074Z,25.83
2023-04-11T07:27:51.039Z,24.29
2023-04-11T07:28:50.985Z,25.52
2023-04-11T07:29:50.990Z,26.25
2023-04-11T07:30:50.965Z,23.27
2023-04-11T07:31:50.987Z,22.96
2023-04-11T07:32:51.039Z,23.57
2023-04-11T07:33:50.933Z,26.95
2023-04-11T07:34:50.919Z,29.30
2023-04-11T07:35:50.919Z,28.78
2023-04-11T07:36:50.914Z,34.20
2023-04-11T07:37:50.887Z,38.10
2023-04-11T07:38:50.876Z,40.03
2023-04-11T07:39:50.868Z,41.15
2023-04-11T07:40:50.857Z,50.39
2023-04-11T07:41:50.840Z,48.96
2023-04-11T07:42:50.828Z,47.93
2023-04-11T07:43:50.841Z,48.67
2023-04-11T07:44:50.816Z,45.29
2023-04-11T07:45:50.862Z,42.65
2023-04-11T07:46:50.781Z,42.13
2023-04-11T07:47:50.782Z,37.93
2023-04-11T07:48:50.800Z,35.79
2023-04-11T07:49:50.767Z,35.79
2023-04-11T07:50:50.743Z,30.26
2023-04-11T07:51:50.737Z,28.51
2023-04-11T07:52:50.716Z,26.45
2023-04-11T07:53:50.714Z,24.80
2023-04-11T07:54:50.702Z,25.22
2023-04-11T07:55:50.709Z,29.11
2023-04-11T07:56:50.672Z,29.22
2023-04-11T07:57:50.659Z,28.39
2023-04-11T07:58:50.648Z,28.60
2023-04-11T07:59:50.717Z,27.78
2023-04-11T08:00:50.638Z,29.83
2023-04-11T08:01:50.661Z,30.55
2023-04-11T08:02:50.821Z,27.37
2023-04-11T08:03:50.731Z,26.45
2023-04-11T08:04:50.674Z,26.14
2023-04-11T08:05:50.571Z,27.37
2023-04-11T08:06:50.571Z,27.17
2023-04-11T08:07:50.548Z,31.57
2023-04-11T08:08:50.566Z,27.37
2023-04-11T08:09:50.539Z,30.34
2023-04-11T08:10:52.172Z,37.73
2023-04-11T08:11:50.508Z,39.06
2023-04-11T08:12:50.497Z,35.36
2023-04-11T08:13:50.482Z,38.95
2023-04-11T08:14:50.476Z,41.53
2023-04-11T08:15:50.486Z,42.03
2023-04-11T08:16:52.314Z,37.73
2023-04-11T08:17:50.518Z,35.04
2023-04-11T08:18:50.429Z,42.11
2023-04-11T08:19:50.425Z,45.89
2023-04-11T08:20:50.405Z,47.09
2023-04-11T08:21:50.404Z,53.03
2023-04-11T08:22:50.384Z,61.73
2023-04-11T08:23:50.384Z,68.18
2023-04-11T08:24:50.365Z,71.59
2023-04-11T08:25:50.355Z,63.29
2023-04-11T08:26:50.346Z,65.45
2023-04-11T08:27:50.341Z,66.71
2023-04-11T08:28:50.328Z,75.56
2023-04-11T08:29:50.314Z,65.84
2023-04-11T08:30:50.339Z,63.59
2023-04-11T08:31:50.313Z,57.98
2023-04-11T08:32:50.335Z,57.56
2023-04-11T08:33:50.280Z,52.46
2023-04-11T08:34:50.257Z,46.91
2023-04-11T08:35:50.272Z,44.88
2023-04-11T08:36:50.240Z,45.83
2023-04-11T08:37:50.241Z,35.26
2023-04-11T08:38:50.225Z,31.97
2023-04-11T08:39:50.204Z,27.76
2023-04-11T08:40:50.195Z,22.51
2023-04-11T08:41:50.194Z,18.50
2023-04-11T08:42:50.166Z,15.83
2023-04-11T08:43:50.154Z,15.01
2023-04-11T08:44:50.154Z,11.82
2023-04-11T08:45:50.170Z,8.53
2023-04-11T08:46:50.123Z,5.24
2023-04-11T08:47:50.173Z,7.91
2023-04-11T08:48:50.114Z,3.80
2023-04-11T08:49:50.086Z,2.05
2023-04-11T08:50:50.081Z,1.03
2023-04-11T08:51:50.072Z,4.93
2023-04-11T08:52:50.053Z,8.32
2023-04-11T08:53:50.040Z,8.32
2023-04-11T08:54:50.031Z,3.90
2023-04-11T08:55:50.034Z,7.70
2023-04-11T08:56:50.015Z,7.50
2023-04-11T08:57:50.027Z,8.12
2023-04-11T08:58:49.989Z,7.29
2023-04-11T08:59:50.014Z,15.11
2023-04-11T09:00:49.973Z,8.33
2023-04-11T09:01:50.050Z,8.23
2023-04-11T09:02:50.097Z,6.48
2023-04-11T09:03:49.960Z,5.24
2023-04-11T09:04:49.965Z,4.01
2023-04-11T09:05:49.922Z,8.95
2023-04-11T09:06:49.899Z,5.45
2023-04-11T09:07:49.984Z,8.23
2023-04-11T09:08:49.875Z,4.53
2023-04-11T09:09:49.865Z,3.91
2023-04-11T09:10:49.853Z,3.29
2023-04-11T09:11:49.844Z,1.34
2023-04-11T09:12:49.833Z,0.31
2023-04-11T09:13:49.821Z,0.00
2023-04-11T09:14:49.869Z,3.08
2023-04-11T09:15:49.832Z,1.44
2023-04-11T09:16:49.796Z,0.31
2023-04-11T09:17:49.843Z,0.00
2023-04-11T09:18:49.767Z,0.00
2023-04-11T09:19:49.872Z,1.03
2023-04-11T09:20:49.760Z,1.54
2023-04-11T09:21:49.806Z,0.00
2023-04-11T09:22:49.729Z,0.00
2023-04-11T09:23:49.728Z,0.00
2023-04-11T09:24:49.700Z,0.00
2023-04-11T09:25:49.702Z,0.00
2023-04-11T09:26:49.696Z,0.00
2023-04-11T09:27:49.696Z,0.00
2023-04-11T09:28:49.673Z,0.00
2023-04-11T09:29:49.654Z,0.00
2023-04-11T09:30:49.667Z,0.00
2023-04-11T09:31:49.727Z,0.00
2023-04-11T09:32:49.721Z,4.31
2023-04-11T09:33:49.605Z,2.36
2023-04-11T09:34:49.596Z,12.82
2023-04-11T09:35:49.646Z,11.07
2023-04-11T09:36:49.570Z,1.33
2023-04-11T09:37:49.559Z,26.62
2023-04-11T09:38:49.568Z,29.47
2023-04-11T09:39:49.538Z,45.12
2023-04-11T09:40:49.626Z,62.88
2023-04-11T09:41:49.516Z,48.19
2023-04-11T09:42:49.568Z,70.57
2023-04-11T09:43:49.511Z,60.41
2023-04-11T09:44:49.481Z,59.91
2023-04-11T09:45:54.631Z,74.21
2023-04-11T09:47:49.503Z,92.33
2023-04-11T09:48:49.559Z,94.15
2023-04-11T09:49:49.430Z,80.13
2023-04-11T09:50:49.434Z,79.00
2023-04-11T09:51:49.543Z,99.99
2023-04-11T09:52:49.394Z,87.49
2023-04-11T09:53:49.385Z,85.88
2023-04-11T09:54:49.375Z,82.34
2023-04-11T09:55:49.360Z,85.52
2023-04-11T09:56:49.357Z,99.99
2023-04-11T09:57:49.340Z,99.99
2023-04-11T09:58:49.326Z,95.36
2023-04-11T09:59:49.320Z,86.73
2023-04-11T10:00:49.342Z,91.98
2023-04-11T10:01:49.375Z,83.81
2023-04-11T10:02:49.590Z,92.94
2023-04-11T10:03:49.282Z,81.10
2023-04-11T10:04:49.307Z,80.89
2023-04-11T10:05:50.031Z,81.40
2023-04-11T10:06:49.238Z,79.36
2023-04-11T10:07:49.256Z,80.69
2023-04-11T10:08:49.221Z,87.41
2023-04-11T10:09:49.208Z,89.76
2023-04-11T10:10:49.198Z,87.96
2023-04-11T10:11:49.188Z,82.17
2023-04-11T10:12:49.174Z,78.93
2023-04-11T10:13:49.316Z,76.78
2023-04-11T10:14:49.183Z,67.77
2023-04-11T10:15:49.142Z,68.93
2023-04-11T10:16:49.367Z,78.28
2023-04-11T10:17:49.155Z,72.03
2023-04-11T10:18:49.107Z,67.11
2023-04-11T10:19:49.100Z,66.19
2023-04-11T10:20:49.083Z,68.11
2023-04-11T10:21:49.077Z,86.18
2023-04-11T10:22:49.057Z,93.55
2023-04-11T10:23:49.076Z,89.97
2023-04-11T10:24:49.141Z,92.63
2023-04-11T10:25:49.031Z,87.82
2023-04-11T10:26:49.020Z,81.84
2023-04-11T10:27:49.121Z,81.52
2023-04-11T10:28:49.001Z,82.21
2023-04-11T10:29:51.385Z,77.76
2023-04-11T10:30:48.982Z,92.44
2023-04-11T10:31:49.062Z,99.99
2023-04-11T10:32:48.995Z,99.99
2023-04-11T10:33:48.948Z,99.99
2023-04-11T10:34:48.936Z,99.99
2023-04-11T10:35:48.961Z,95.46
2023-04-11T10:36:48.915Z,99.99
2023-04-11T10:37:48.902Z,96.64
2023-04-11T10:38:49.523Z,99.99
2023-04-11T10:39:48.980Z,98.79
2023-04-11T10:40:48.868Z,99.99
2023-04-11T10:41:48.858Z,99.99
2023-04-11T10:42:48.848Z,99.99
2023-04-11T10:43:48.853Z,99.99
2023-04-11T10:44:48.827Z,99.99
2023-04-11T10:45:48.822Z,99.99
2023-04-11T10:46:48.953Z,99.99
2023-04-11T10:47:48.827Z,99.99
2023-04-11T10:48:48.779Z,99.99
2023-04-11T10:49:48.773Z,99.99
2023-04-11T10:50:48.757Z,99.99
2023-04-11T10:51:48.749Z,99.99
2023-04-11T10:52:48.737Z,99.99
2023-04-11T10:53:48.729Z,99.99
2023-04-11T10:54:48.733Z,99.99
2023-04-11T10:55:48.742Z,99.99
2023-04-11T10:56:48.699Z,99.99
2023-04-11T10:57:48.681Z,99.99
2023-04-11T10:58:48.696Z,99.99
2023-04-11T10:59:48.661Z,99.99
2023-04-11T11:00:48.729Z,99.99
2023-04-11T11:01:52.389Z,99.99
2023-04-11T11:02:48.834Z,99.99
2023-04-11T11:03:48.766Z,99.99
2023-04-11T11:04:48.686Z,99.99
2023-04-11T11:05:48.603Z,99.99
2023-04-11T11:06:56.676Z,99.99
2023-04-11T11:07:49.604Z,99.99
2023-04-11T11:08:48.560Z,99.99
2023-04-11T11:09:48.547Z,99.99
2023-04-11T11:10:48.555Z,99.99
2023-04-11T11:11:48.549Z,99.99
2023-04-11T11:12:48.517Z,99.99
2023-04-11T11:13:48.499Z,99.99
2023-04-11T11:14:48.510Z,99.99
2023-04-11T11:15:48.478Z,99.99
2023-04-11T11:16:48.525Z,99.99
2023-04-11T11:17:48.520Z,99.99
2023-04-11T11:18:48.454Z,99.99
2023-04-11T11:19:48.675Z,99.99
2023-04-11T11:20:48.425Z,99.99
2023-04-11T11:21:48.411Z,99.99
2023-04-11T11:22:48.405Z,99.99
2023-04-11T11:23:48.388Z,99.99
2023-04-11T11:24:48.382Z,99.99
2023-04-11T11:25:48.365Z,96.66
2023-04-11T11:26:48.356Z,97.31
2023-04-11T11:27:48.370Z,96.51
2023-04-11T11:28:48.393Z,93.82
2023-04-11T11:29:48.322Z,79.85
2023-04-11T11:30:48.311Z,64.96
2023-04-11T11:31:48.305Z,56.03
2023-04-11T11:32:48.313Z,52.66
2023-04-11T11:33:48.291Z,44.59
2023-04-11T11:34:48.268Z,34.59
2023-04-11T11:35:48.267Z,28.30
2023-04-11T11:36:48.288Z,25.40
2023-04-11T11:37:48.233Z,28.14
2023-04-11T11:38:48.224Z,56.18
2023-04-11T11:39:48.215Z,54.13
2023-04-11T11:40:48.204Z,47.80
2023-04-11T11:41:48.192Z,54.24
2023-04-11T11:42:48.184Z,72.01
2023-04-11T11:43:48.223Z,84.90
2023-04-11T11:44:48.179Z,96.08
2023-04-11T11:45:48.181Z,90.45
2023-04-11T11:46:48.138Z,94.04
2023-04-11T11:47:48.177Z,78.02
2023-04-11T11:48:48.115Z,77.67
2023-04-11T11:49:48.139Z,86.30
2023-04-11T11:50:48.095Z,88.67
2023-04-11T11:51:48.089Z,82.59
2023-04-11T11:52:48.074Z,79.25
2023-04-11T11:53:48.064Z,75.41
2023-04-11T11:54:48.058Z,74.29
2023-04-11T11:55:48.046Z,85.16
2023-04-11T11:56:48.037Z,85.73
2023-04-11T11:57:48.029Z,95.39
2023-04-11T11:58:48.031Z,95.23
2023-04-11T11:59:48.025Z,89.92
2023-04-11T12:00:47.999Z,92.99
2023-04-11T12:01:48.039Z,85.82
2023-04-11T12:02:48.161Z,99.99
2023-04-11T12:03:48.223Z,99.99
2023-04-11T12:04:48.069Z,99.99
2023-04-11T12:05:47.949Z,99.99
2023-04-11T12:06:47.924Z,99.99
2023-04-11T12:07:47.913Z,99.99
2023-04-11T12:08:47.900Z,99.99
2023-04-11T12:09:47.887Z,99.99
2023-04-11T12:10:47.884Z,99.99
2023-04-11T12:11:47.866Z,99.99
2023-04-11T12:12:53.273Z,99.99
2023-04-11T12:13:48.870Z,99.99
2023-04-11T12:14:47.833Z,99.99
2023-04-11T12:15:47.872Z,99.99
2023-04-11T12:16:47.812Z,99.99
2023-04-11T12:17:47.823Z,99.99
2023-04-11T12:18:47.789Z,99.99
2023-04-11T12:19:47.836Z,99.99
2023-04-11T12:20:47.778Z,99.99
2023-04-11T12:21:47.774Z,99.99
2023-04-11T12:22:47.748Z,99.82
2023-04-11T12:23:47.742Z,99.99
2023-04-11T12:24:47.730Z,99.99
2023-04-11T12:25:47.708Z,99.99
2023-04-11T12:27:05.593Z,99.99
2023-04-11T12:27:48.752Z,99.80
2023-04-11T12:28:47.681Z,99.99
2023-04-11T12:29:47.665Z,89.19
2023-04-11T12:30:47.665Z,83.51
2023-04-11T12:31:47.739Z,94.62
2023-04-11T12:32:47.746Z,95.03
2023-04-11T12:33:47.624Z,89.87
2023-04-11T12:34:47.609Z,88.43
2023-04-11T12:35:47.636Z,84.64
2023-04-11T12:36:47.597Z,78.35
2023-04-11T12:37:47.588Z,82.41
2023-04-11T12:38:47.575Z,90.36
2023-04-11T12:39:47.556Z,94.14
2023-04-11T12:40:47.548Z,98.24
2023-04-11T12:41:47.532Z,99.99
2023-04-11T12:42:56.217Z,99.99
2023-04-11T12:43:48.570Z,99.99
2023-04-11T12:44:47.509Z,99.99
2023-04-11T12:45:47.491Z,95.23
2023-04-11T12:46:47.525Z,99.99
2023-04-11T12:47:47.617Z,99.99
2023-04-11T12:48:47.458Z,99.99
2023-04-11T12:49:47.464Z,99.99
2023-04-11T12:50:47.437Z,99.99
2023-04-11T12:51:47.423Z,99.99
2023-04-11T12:52:47.413Z,99.99
2023-04-11T12:53:47.403Z,99.99
2023-04-11T12:54:47.398Z,99.99
2023-04-11T12:55:47.471Z,99.99
2023-04-11T12:56:47.388Z,99.99
2023-04-11T12:57:47.437Z,99.99
2023-04-11T12:58:47.431Z,99.99
2023-04-11T12:59:47.441Z,99.99
2023-04-11T13:00:47.436Z,99.99
2023-04-11T13:01:47.574Z,99.99
2023-04-11T13:02:47.657Z,99.99
2023-04-11T13:03:47.454Z,99.99
2023-04-11T13:04:47.426Z,99.99
2023-04-11T13:05:47.271Z,99.99
2023-04-11T13:06:47.266Z,99.99